sensor_id;sensor_type;location;lat;lon;timestamp;P1;durP1;ratioP1;P2;durP2;ratioP2
34657;SDS011;20865;43.312;27.152;2024-01-25T00:01:12;93.15;;;36.23;;
34657;SDS011;20865;43.312;27.152;2024-01-25T00:03:43;92.30;;;37.05;;
34657;SDS011;20865;43.312;27.152;2024-01-25T00:06:10;105.80;;;40.80;;
34657;SDS011;20865;43.312;27.152;2024-01-25T00:08:39;131.70;;;46.30;;
34657;SDS011;20865;43.312;27.152;2024-01-25T00:11:06;125.07;;;46.02;;
34657;SDS011;20865;43.312;27.152;2024-01-25T00:13:35;91.12;;;32.48;;
34657;SDS011;20865;43.312;27.152;2024-01-25T00:16:04;91.45;;;34.70;;
34657;SDS011;20865;43.312;27.152;2024-01-25T00:18:32;89.22;;;34.88;;
34657;SDS011;20865;43.312;27.152;2024-01-25T00:20:59;96.15;;;37.25;;
34657;SDS011;20865;43.312;27.152;2024-01-25T00:23:27;105.10;;;37.23;;
34657;SDS011;20865;43.312;27.152;2024-01-25T00:25:55;108.07;;;39.25;;
34657;SDS011;20865;43.312;27.152;2024-01-25T00:28:25;107.60;;;39.75;;
34657;SDS011;20865;43.312;27.152;2024-01-25T00:30:53;108.95;;;38.98;;
34657;SDS011;20865;43.312;27.152;2024-01-25T00:33:21;101.95;;;38.08;;
34657;SDS011;20865;43.312;27.152;2024-01-25T00:35:49;95.25;;;34.60;;
34657;SDS011;20865;43.312;27.152;2024-01-25T00:38:17;67.08;;;27.58;;
34657;SDS011;20865;43.312;27.152;2024-01-25T00:40:45;57.38;;;22.70;;
34657;SDS011;20865;43.312;27.152;2024-01-25T00:43:13;48.83;;;20.17;;
34657;SDS011;20865;43.312;27.152;2024-01-25T00:45:41;50.00;;;19.37;;
34657;SDS011;20865;43.312;27.152;2024-01-25T00:48:10;48.85;;;18.05;;
34657;SDS011;20865;43.312;27.152;2024-01-25T00:50:38;49.65;;;19.15;;
34657;SDS011;20865;43.312;27.152;2024-01-25T00:53:06;46.85;;;18.52;;
34657;SDS011;20865;43.312;27.152;2024-01-25T00:55:34;51.55;;;19.50;;
34657;SDS011;20865;43.312;27.152;2024-01-25T00:58:02;42.58;;;18.40;;
34657;SDS011;20865;43.312;27.152;2024-01-25T01:00:30;53.23;;;21.02;;
34657;SDS011;20865;43.312;27.152;2024-01-25T01:02:58;38.73;;;17.77;;
34657;SDS011;20865;43.312;27.152;2024-01-25T01:05:30;44.93;;;17.52;;
34657;SDS011;20865;43.312;27.152;2024-01-25T01:07:58;67.65;;;23.38;;
34657;SDS011;20865;43.312;27.152;2024-01-25T01:10:27;58.50;;;21.10;;
34657;SDS011;20865;43.312;27.152;2024-01-25T01:12:54;57.30;;;23.45;;
34657;SDS011;20865;43.312;27.152;2024-01-25T01:15:22;85.32;;;31.82;;
34657;SDS011;20865;43.312;27.152;2024-01-25T01:17:50;82.88;;;31.33;;
34657;SDS011;20865;43.312;27.152;2024-01-25T01:20:17;119.40;;;43.42;;
34657;SDS011;20865;43.312;27.152;2024-01-25T01:22:45;122.85;;;44.65;;
34657;SDS011;20865;43.312;27.152;2024-01-25T01:25:13;159.30;;;58.05;;
34657;SDS011;20865;43.312;27.152;2024-01-25T01:27:40;136.75;;;48.38;;
34657;SDS011;20865;43.312;27.152;2024-01-25T01:30:08;115.90;;;41.88;;
34657;SDS011;20865;43.312;27.152;2024-01-25T01:32:36;95.47;;;37.28;;
34657;SDS011;20865;43.312;27.152;2024-01-25T01:35:04;93.15;;;36.30;;
34657;SDS011;20865;43.312;27.152;2024-01-25T01:37:32;93.47;;;37.80;;
34657;SDS011;20865;43.312;27.152;2024-01-25T01:39:59;98.35;;;35.80;;
34657;SDS011;20865;43.312;27.152;2024-01-25T01:42:27;92.90;;;33.60;;
34657;SDS011;20865;43.312;27.152;2024-01-25T01:44:55;77.25;;;28.77;;
34657;SDS011;20865;43.312;27.152;2024-01-25T01:47:23;43.70;;;17.62;;
34657;SDS011;20865;43.312;27.152;2024-01-25T01:49:51;47.83;;;17.20;;
34657;SDS011;20865;43.312;27.152;2024-01-25T01:52:18;43.23;;;15.28;;
34657;SDS011;20865;43.312;27.152;2024-01-25T01:54:46;50.95;;;21.02;;
34657;SDS011;20865;43.312;27.152;2024-01-25T01:57:15;55.65;;;23.77;;
34657;SDS011;20865;43.312;27.152;2024-01-25T01:59:42;57.93;;;22.98;;
34657;SDS011;20865;43.312;27.152;2024-01-25T02:02:11;88.42;;;28.92;;
34657;SDS011;20865;43.312;27.152;2024-01-25T02:04:39;73.28;;;26.80;;
34657;SDS011;20865;43.312;27.152;2024-01-25T02:07:07;42.67;;;17.15;;
34657;SDS011;20865;43.312;27.152;2024-01-25T02:09:35;42.33;;;17.35;;
34657;SDS011;20865;43.312;27.152;2024-01-25T02:12:03;43.55;;;17.75;;
34657;SDS011;20865;43.312;27.152;2024-01-25T02:14:32;47.43;;;18.87;;
34657;SDS011;20865;43.312;27.152;2024-01-25T02:17:00;39.23;;;16.42;;
34657;SDS011;20865;43.312;27.152;2024-01-25T02:19:27;48.48;;;17.73;;
34657;SDS011;20865;43.312;27.152;2024-01-25T02:21:55;54.42;;;20.10;;
34657;SDS011;20865;43.312;27.152;2024-01-25T02:24:25;43.40;;;16.77;;
34657;SDS011;20865;43.312;27.152;2024-01-25T02:26:53;45.17;;;18.25;;
34657;SDS011;20865;43.312;27.152;2024-01-25T02:29:21;51.63;;;19.05;;
34657;SDS011;20865;43.312;27.152;2024-01-25T02:31:48;55.50;;;21.33;;
34657;SDS011;20865;43.312;27.152;2024-01-25T02:34:16;36.73;;;16.45;;
34657;SDS011;20865;43.312;27.152;2024-01-25T02:36:44;40.67;;;15.95;;
34657;SDS011;20865;43.312;27.152;2024-01-25T02:39:11;43.70;;;16.82;;
34657;SDS011;20865;43.312;27.152;2024-01-25T02:41:39;43.40;;;16.20;;
34657;SDS011;20865;43.312;27.152;2024-01-25T02:44:06;59.65;;;24.18;;
34657;SDS011;20865;43.312;27.152;2024-01-25T02:46:34;48.52;;;19.87;;
34657;SDS011;20865;43.312;27.152;2024-01-25T02:49:02;39.23;;;16.35;;
34657;SDS011;20865;43.312;27.152;2024-01-25T02:51:29;38.10;;;14.35;;
34657;SDS011;20865;43.312;27.152;2024-01-25T02:53:57;35.58;;;14.15;;
34657;SDS011;20865;43.312;27.152;2024-01-25T02:56:25;32.83;;;13.50;;
34657;SDS011;20865;43.312;27.152;2024-01-25T02:58:54;40.08;;;16.17;;
34657;SDS011;20865;43.312;27.152;2024-01-25T03:01:21;49.65;;;19.15;;
34657;SDS011;20865;43.312;27.152;2024-01-25T03:03:49;53.50;;;20.40;;
34657;SDS011;20865;43.312;27.152;2024-01-25T03:06:16;47.30;;;17.37;;
34657;SDS011;20865;43.312;27.152;2024-01-25T03:08:44;32.08;;;14.73;;
34657;SDS011;20865;43.312;27.152;2024-01-25T03:11:12;37.20;;;14.13;;
34657;SDS011;20865;43.312;27.152;2024-01-25T03:13:40;30.62;;;13.13;;
34657;SDS011;20865;43.312;27.152;2024-01-25T03:16:08;29.45;;;12.05;;
34657;SDS011;20865;43.312;27.152;2024-01-25T03:18:36;36.95;;;14.35;;
34657;SDS011;20865;43.312;27.152;2024-01-25T03:21:03;41.30;;;16.20;;
34657;SDS011;20865;43.312;27.152;2024-01-25T03:23:31;39.42;;;16.17;;
34657;SDS011;20865;43.312;27.152;2024-01-25T03:26:01;35.15;;;14.70;;
34657;SDS011;20865;43.312;27.152;2024-01-25T03:28:29;44.85;;;19.50;;
34657;SDS011;20865;43.312;27.152;2024-01-25T03:30:56;45.35;;;18.37;;
34657;SDS011;20865;43.312;27.152;2024-01-25T03:33:24;43.92;;;16.32;;
34657;SDS011;20865;43.312;27.152;2024-01-25T03:35:53;40.67;;;16.35;;
34657;SDS011;20865;43.312;27.152;2024-01-25T03:38:21;52.15;;;19.52;;
34657;SDS011;20865;43.312;27.152;2024-01-25T03:40:49;41.23;;;16.45;;
34657;SDS011;20865;43.312;27.152;2024-01-25T03:43:16;58.55;;;21.20;;
34657;SDS011;20865;43.312;27.152;2024-01-25T03:45:44;64.72;;;22.48;;
34657;SDS011;20865;43.312;27.152;2024-01-25T03:48:12;55.17;;;20.17;;
34657;SDS011;20865;43.312;27.152;2024-01-25T03:50:39;41.28;;;15.08;;
34657;SDS011;20865;43.312;27.152;2024-01-25T03:53:07;30.68;;;12.18;;
34657;SDS011;20865;43.312;27.152;2024-01-25T03:55:34;33.95;;;12.40;;
34657;SDS011;20865;43.312;27.152;2024-01-25T03:58:02;32.03;;;12.88;;
34657;SDS011;20865;43.312;27.152;2024-01-25T04:00:30;31.68;;;12.10;;
34657;SDS011;20865;43.312;27.152;2024-01-25T04:02:57;31.50;;;13.95;;
34657;SDS011;20865;43.312;27.152;2024-01-25T04:05:25;26.35;;;11.60;;
34657;SDS011;20865;43.312;27.152;2024-01-25T04:07:53;27.98;;;12.70;;
34657;SDS011;20865;43.312;27.152;2024-01-25T04:10:20;30.12;;;11.90;;
34657;SDS011;20865;43.312;27.152;2024-01-25T04:12:48;29.95;;;11.68;;
34657;SDS011;20865;43.312;27.152;2024-01-25T04:15:16;25.95;;;11.30;;
34657;SDS011;20865;43.312;27.152;2024-01-25T04:17:43;24.75;;;10.93;;
34657;SDS011;20865;43.312;27.152;2024-01-25T04:20:11;31.00;;;11.10;;
34657;SDS011;20865;43.312;27.152;2024-01-25T04:22:39;30.27;;;11.68;;
34657;SDS011;20865;43.312;27.152;2024-01-25T04:25:06;30.40;;;11.05;;
34657;SDS011;20865;43.312;27.152;2024-01-25T04:27:36;62.40;;;25.37;;
34657;SDS011;20865;43.312;27.152;2024-01-25T04:30:04;38.13;;;15.55;;
34657;SDS011;20865;43.312;27.152;2024-01-25T04:32:33;32.95;;;13.18;;
34657;SDS011;20865;43.312;27.152;2024-01-25T04:35:01;28.80;;;11.00;;
34657;SDS011;20865;43.312;27.152;2024-01-25T04:37:29;24.27;;;9.93;;
34657;SDS011;20865;43.312;27.152;2024-01-25T04:39:57;21.42;;;10.20;;
34657;SDS011;20865;43.312;27.152;2024-01-25T04:42:24;21.10;;;9.25;;
34657;SDS011;20865;43.312;27.152;2024-01-25T04:44:53;21.50;;;9.13;;
34657;SDS011;20865;43.312;27.152;2024-01-25T04:47:21;23.70;;;10.03;;
34657;SDS011;20865;43.312;27.152;2024-01-25T04:49:49;33.05;;;13.38;;
34657;SDS011;20865;43.312;27.152;2024-01-25T04:52:16;36.35;;;13.32;;
34657;SDS011;20865;43.312;27.152;2024-01-25T04:54:44;59.70;;;19.32;;
34657;SDS011;20865;43.312;27.152;2024-01-25T04:57:11;48.83;;;17.50;;
34657;SDS011;20865;43.312;27.152;2024-01-25T04:59:39;32.93;;;12.18;;
34657;SDS011;20865;43.312;27.152;2024-01-25T05:02:06;39.67;;;16.65;;
34657;SDS011;20865;43.312;27.152;2024-01-25T05:04:34;22.17;;;9.40;;
34657;SDS011;20865;43.312;27.152;2024-01-25T05:07:02;24.40;;;10.50;;
34657;SDS011;20865;43.312;27.152;2024-01-25T05:09:29;23.40;;;10.40;;
34657;SDS011;20865;43.312;27.152;2024-01-25T05:11:57;16.00;;;8.23;;
34657;SDS011;20865;43.312;27.152;2024-01-25T05:14:26;12.90;;;6.28;;
34657;SDS011;20865;43.312;27.152;2024-01-25T05:16:54;23.45;;;6.35;;
34657;SDS011;20865;43.312;27.152;2024-01-25T05:19:21;12.13;;;5.20;;
34657;SDS011;20865;43.312;27.152;2024-01-25T05:21:51;11.95;;;5.67;;
34657;SDS011;20865;43.312;27.152;2024-01-25T05:24:18;11.57;;;5.80;;
34657;SDS011;20865;43.312;27.152;2024-01-25T05:26:46;15.32;;;5.45;;
34657;SDS011;20865;43.312;27.152;2024-01-25T05:29:13;13.83;;;5.30;;
34657;SDS011;20865;43.312;27.152;2024-01-25T05:31:42;14.15;;;6.35;;
34657;SDS011;20865;43.312;27.152;2024-01-25T05:34:09;19.85;;;6.87;;
34657;SDS011;20865;43.312;27.152;2024-01-25T05:36:37;12.15;;;5.20;;
34657;SDS011;20865;43.312;27.152;2024-01-25T05:39:04;16.10;;;6.47;;
34657;SDS011;20865;43.312;27.152;2024-01-25T05:41:33;23.22;;;7.62;;
34657;SDS011;20865;43.312;27.152;2024-01-25T05:44:01;18.62;;;6.95;;
34657;SDS011;20865;43.312;27.152;2024-01-25T05:46:28;16.35;;;6.35;;
34657;SDS011;20865;43.312;27.152;2024-01-25T05:48:56;13.28;;;6.15;;
34657;SDS011;20865;43.312;27.152;2024-01-25T05:51:24;28.70;;;11.33;;
34657;SDS011;20865;43.312;27.152;2024-01-25T05:53:51;20.00;;;8.88;;
34657;SDS011;20865;43.312;27.152;2024-01-25T05:56:19;14.25;;;6.00;;
34657;SDS011;20865;43.312;27.152;2024-01-25T05:58:47;13.98;;;5.90;;
34657;SDS011;20865;43.312;27.152;2024-01-25T06:01:14;13.80;;;5.45;;
34657;SDS011;20865;43.312;27.152;2024-01-25T06:03:42;12.75;;;5.90;;
34657;SDS011;20865;43.312;27.152;2024-01-25T06:06:09;14.25;;;7.00;;
34657;SDS011;20865;43.312;27.152;2024-01-25T06:08:37;16.62;;;6.80;;
34657;SDS011;20865;43.312;27.152;2024-01-25T06:11:04;15.75;;;5.92;;
34657;SDS011;20865;43.312;27.152;2024-01-25T06:13:32;11.03;;;4.58;;
34657;SDS011;20865;43.312;27.152;2024-01-25T06:16:00;23.47;;;8.43;;
34657;SDS011;20865;43.312;27.152;2024-01-25T06:18:27;52.95;;;19.48;;
34657;SDS011;20865;43.312;27.152;2024-01-25T06:20:55;99.75;;;38.70;;
34657;SDS011;20865;43.312;27.152;2024-01-25T06:23:22;49.65;;;21.85;;
34657;SDS011;20865;43.312;27.152;2024-01-25T06:25:50;125.18;;;58.75;;
34657;SDS011;20865;43.312;27.152;2024-01-25T06:28:17;80.65;;;37.38;;
34657;SDS011;20865;43.312;27.152;2024-01-25T06:30:45;51.65;;;20.30;;
34657;SDS011;20865;43.312;27.152;2024-01-25T06:33:13;17.90;;;6.45;;
34657;SDS011;20865;43.312;27.152;2024-01-25T06:35:40;12.03;;;5.72;;
34657;SDS011;20865;43.312;27.152;2024-01-25T06:38:08;20.25;;;9.28;;
34657;SDS011;20865;43.312;27.152;2024-01-25T06:40:35;16.30;;;6.92;;
34657;SDS011;20865;43.312;27.152;2024-01-25T06:43:03;14.87;;;6.17;;
34657;SDS011;20865;43.312;27.152;2024-01-25T06:45:31;24.02;;;10.60;;
34657;SDS011;20865;43.312;27.152;2024-01-25T06:47:59;19.07;;;8.15;;
34657;SDS011;20865;43.312;27.152;2024-01-25T06:50:26;41.30;;;16.17;;
34657;SDS011;20865;43.312;27.152;2024-01-25T06:52:54;18.23;;;8.50;;
34657;SDS011;20865;43.312;27.152;2024-01-25T06:55:22;19.65;;;8.05;;
34657;SDS011;20865;43.312;27.152;2024-01-25T06:57:49;101.92;;;39.50;;
34657;SDS011;20865;43.312;27.152;2024-01-25T07:00:17;21.05;;;8.03;;
34657;SDS011;20865;43.312;27.152;2024-01-25T07:02:46;22.55;;;9.78;;
34657;SDS011;20865;43.312;27.152;2024-01-25T07:05:14;36.45;;;14.68;;
34657;SDS011;20865;43.312;27.152;2024-01-25T07:07:42;16.85;;;7.80;;
34657;SDS011;20865;43.312;27.152;2024-01-25T07:10:09;18.82;;;7.92;;
34657;SDS011;20865;43.312;27.152;2024-01-25T07:12:37;21.35;;;10.18;;
34657;SDS011;20865;43.312;27.152;2024-01-25T07:15:04;21.80;;;8.75;;
34657;SDS011;20865;43.312;27.152;2024-01-25T07:17:32;16.52;;;6.60;;
34657;SDS011;20865;43.312;27.152;2024-01-25T07:20:01;16.30;;;6.90;;
34657;SDS011;20865;43.312;27.152;2024-01-25T07:22:29;20.70;;;6.72;;
34657;SDS011;20865;43.312;27.152;2024-01-25T07:24:56;15.85;;;4.80;;
34657;SDS011;20865;43.312;27.152;2024-01-25T07:27:24;14.13;;;5.35;;
34657;SDS011;20865;43.312;27.152;2024-01-25T07:29:51;15.72;;;6.50;;
34657;SDS011;20865;43.312;27.152;2024-01-25T07:32:19;12.93;;;5.10;;
34657;SDS011;20865;43.312;27.152;2024-01-25T07:34:47;15.85;;;5.15;;
34657;SDS011;20865;43.312;27.152;2024-01-25T07:37:14;8.80;;;4.25;;
34657;SDS011;20865;43.312;27.152;2024-01-25T07:39:43;12.37;;;4.85;;
34657;SDS011;20865;43.312;27.152;2024-01-25T07:42:11;18.12;;;8.38;;
34657;SDS011;20865;43.312;27.152;2024-01-25T07:44:39;11.18;;;5.20;;
34657;SDS011;20865;43.312;27.152;2024-01-25T07:47:06;16.20;;;6.55;;
34657;SDS011;20865;43.312;27.152;2024-01-25T07:49:34;17.20;;;9.40;;
34657;SDS011;20865;43.312;27.152;2024-01-25T07:52:01;22.35;;;8.75;;
34657;SDS011;20865;43.312;27.152;2024-01-25T07:54:29;17.45;;;8.25;;
34657;SDS011;20865;43.312;27.152;2024-01-25T07:56:57;23.32;;;10.30;;
34657;SDS011;20865;43.312;27.152;2024-01-25T07:59:24;23.22;;;9.50;;
34657;SDS011;20865;43.312;27.152;2024-01-25T08:01:52;57.58;;;26.93;;
34657;SDS011;20865;43.312;27.152;2024-01-25T08:04:20;94.42;;;39.67;;
34657;SDS011;20865;43.312;27.152;2024-01-25T08:06:47;99.50;;;39.75;;
34657;SDS011;20865;43.312;27.152;2024-01-25T08:09:15;59.90;;;27.95;;
34657;SDS011;20865;43.312;27.152;2024-01-25T08:11:42;19.80;;;9.93;;
34657;SDS011;20865;43.312;27.152;2024-01-25T08:14:10;44.13;;;21.80;;
34657;SDS011;20865;43.312;27.152;2024-01-25T08:16:38;17.90;;;8.73;;
34657;SDS011;20865;43.312;27.152;2024-01-25T08:19:05;22.93;;;5.95;;
34657;SDS011;20865;43.312;27.152;2024-01-25T08:21:33;9.18;;;4.78;;
34657;SDS011;20865;43.312;27.152;2024-01-25T08:24:01;11.40;;;4.97;;
34657;SDS011;20865;43.312;27.152;2024-01-25T08:26:29;15.35;;;5.12;;
34657;SDS011;20865;43.312;27.152;2024-01-25T08:28:57;12.45;;;5.10;;
34657;SDS011;20865;43.312;27.152;2024-01-25T08:31:25;15.68;;;5.95;;
34657;SDS011;20865;43.312;27.152;2024-01-25T08:33:52;10.63;;;4.33;;
34657;SDS011;20865;43.312;27.152;2024-01-25T08:36:20;13.13;;;5.00;;
34657;SDS011;20865;43.312;27.152;2024-01-25T08:38:48;9.90;;;4.58;;
34657;SDS011;20865;43.312;27.152;2024-01-25T08:41:16;13.93;;;5.12;;
34657;SDS011;20865;43.312;27.152;2024-01-25T08:43:43;12.33;;;4.47;;
34657;SDS011;20865;43.312;27.152;2024-01-25T08:46:12;10.60;;;4.90;;
34657;SDS011;20865;43.312;27.152;2024-01-25T08:48:41;8.50;;;4.45;;
34657;SDS011;20865;43.312;27.152;2024-01-25T08:51:09;18.77;;;7.83;;
34657;SDS011;20865;43.312;27.152;2024-01-25T08:53:36;9.75;;;4.78;;
34657;SDS011;20865;43.312;27.152;2024-01-25T08:56:04;12.23;;;4.97;;
34657;SDS011;20865;43.312;27.152;2024-01-25T08:58:32;12.53;;;4.50;;
34657;SDS011;20865;43.312;27.152;2024-01-25T09:00:59;7.17;;;3.67;;
34657;SDS011;20865;43.312;27.152;2024-01-25T09:03:27;10.10;;;4.08;;
34657;SDS011;20865;43.312;27.152;2024-01-25T09:05:54;9.75;;;4.20;;
34657;SDS011;20865;43.312;27.152;2024-01-25T09:08:22;10.88;;;4.60;;
34657;SDS011;20865;43.312;27.152;2024-01-25T09:10:50;9.60;;;4.33;;
34657;SDS011;20865;43.312;27.152;2024-01-25T09:13:17;9.45;;;4.37;;
34657;SDS011;20865;43.312;27.152;2024-01-25T09:15:45;9.68;;;4.55;;
34657;SDS011;20865;43.312;27.152;2024-01-25T09:18:13;9.90;;;4.37;;
34657;SDS011;20865;43.312;27.152;2024-01-25T09:20:40;9.33;;;4.75;;
34657;SDS011;20865;43.312;27.152;2024-01-25T09:23:10;10.00;;;4.60;;
34657;SDS011;20865;43.312;27.152;2024-01-25T09:25:37;11.18;;;4.40;;
34657;SDS011;20865;43.312;27.152;2024-01-25T09:28:05;12.95;;;4.10;;
34657;SDS011;20865;43.312;27.152;2024-01-25T09:30:32;13.00;;;5.33;;
34657;SDS011;20865;43.312;27.152;2024-01-25T09:33:00;19.55;;;4.78;;
34657;SDS011;20865;43.312;27.152;2024-01-25T09:35:27;13.18;;;4.65;;
34657;SDS011;20865;43.312;27.152;2024-01-25T09:37:55;10.80;;;4.42;;
34657;SDS011;20865;43.312;27.152;2024-01-25T09:40:23;9.93;;;4.37;;
34657;SDS011;20865;43.312;27.152;2024-01-25T09:42:51;25.92;;;9.38;;
34657;SDS011;20865;43.312;27.152;2024-01-25T09:45:19;14.30;;;5.25;;
34657;SDS011;20865;43.312;27.152;2024-01-25T09:47:47;8.85;;;4.17;;
34657;SDS011;20865;43.312;27.152;2024-01-25T09:50:15;18.82;;;6.65;;
34657;SDS011;20865;43.312;27.152;2024-01-25T09:52:43;8.00;;;4.47;;
34657;SDS011;20865;43.312;27.152;2024-01-25T09:55:13;14.13;;;4.37;;
34657;SDS011;20865;43.312;27.152;2024-01-25T09:57:44;18.02;;;6.53;;
34657;SDS011;20865;43.312;27.152;2024-01-25T10:00:12;14.28;;;4.58;;
34657;SDS011;20865;43.312;27.152;2024-01-25T10:02:41;8.20;;;4.58;;
34657;SDS011;20865;43.312;27.152;2024-01-25T10:05:09;22.35;;;4.62;;
34657;SDS011;20865;43.312;27.152;2024-01-25T10:07:41;48.75;;;22.05;;
34657;SDS011;20865;43.312;27.152;2024-01-25T10:10:09;24.72;;;9.08;;
34657;SDS011;20865;43.312;27.152;2024-01-25T10:12:43;20.02;;;5.78;;
34657;SDS011;20865;43.312;27.152;2024-01-25T10:15:09;16.15;;;6.20;;
34657;SDS011;20865;43.312;27.152;2024-01-25T10:17:36;25.90;;;5.03;;
34657;SDS011;20865;43.312;27.152;2024-01-25T10:20:05;13.32;;;5.17;;
34657;SDS011;20865;43.312;27.152;2024-01-25T10:22:35;17.98;;;7.12;;
34657;SDS011;20865;43.312;27.152;2024-01-25T10:25:04;12.65;;;4.62;;
34657;SDS011;20865;43.312;27.152;2024-01-25T10:27:34;12.53;;;4.60;;
34657;SDS011;20865;43.312;27.152;2024-01-25T10:30:01;15.25;;;5.20;;
34657;SDS011;20865;43.312;27.152;2024-01-25T10:32:31;16.57;;;5.58;;
34657;SDS011;20865;43.312;27.152;2024-01-25T10:34:58;12.23;;;5.20;;
34657;SDS011;20865;43.312;27.152;2024-01-25T10:37:27;16.57;;;6.80;;
34657;SDS011;20865;43.312;27.152;2024-01-25T10:39:57;18.90;;;4.60;;
34657;SDS011;20865;43.312;27.152;2024-01-25T10:42:26;20.00;;;6.22;;
34657;SDS011;20865;43.312;27.152;2024-01-25T10:44:53;16.07;;;6.00;;
34657;SDS011;20865;43.312;27.152;2024-01-25T10:47:21;13.32;;;4.92;;
34657;SDS011;20865;43.312;27.152;2024-01-25T10:49:50;13.83;;;4.80;;
34657;SDS011;20865;43.312;27.152;2024-01-25T10:52:18;10.88;;;4.30;;
34657;SDS011;20865;43.312;27.152;2024-01-25T10:54:47;13.38;;;3.75;;
34657;SDS011;20865;43.312;27.152;2024-01-25T10:57:15;10.18;;;4.15;;
34657;SDS011;20865;43.312;27.152;2024-01-25T10:59:43;11.15;;;4.33;;
34657;SDS011;20865;43.312;27.152;2024-01-25T11:02:12;17.35;;;4.03;;
34657;SDS011;20865;43.312;27.152;2024-01-25T11:04:40;15.98;;;5.10;;
34657;SDS011;20865;43.312;27.152;2024-01-25T11:07:09;12.35;;;4.72;;
34657;SDS011;20865;43.312;27.152;2024-01-25T11:09:37;21.55;;;5.33;;
34657;SDS011;20865;43.312;27.152;2024-01-25T11:12:11;15.25;;;4.05;;
34657;SDS011;20865;43.312;27.152;2024-01-25T11:14:39;11.53;;;3.55;;
34657;SDS011;20865;43.312;27.152;2024-01-25T11:17:19;18.73;;;4.40;;
34657;SDS011;20865;43.312;27.152;2024-01-25T11:19:49;12.90;;;4.12;;
34657;SDS011;20865;43.312;27.152;2024-01-25T11:22:19;15.75;;;4.45;;
34657;SDS011;20865;43.312;27.152;2024-01-25T11:24:46;10.50;;;4.28;;
34657;SDS011;20865;43.312;27.152;2024-01-25T11:27:14;15.43;;;4.85;;
34657;SDS011;20865;43.312;27.152;2024-01-25T11:29:42;9.78;;;3.30;;
34657;SDS011;20865;43.312;27.152;2024-01-25T11:32:09;10.95;;;3.22;;
34657;SDS011;20865;43.312;27.152;2024-01-25T11:34:38;12.58;;;4.35;;
34657;SDS011;20865;43.312;27.152;2024-01-25T11:37:06;15.35;;;3.75;;
34657;SDS011;20865;43.312;27.152;2024-01-25T11:39:34;14.85;;;3.92;;
34657;SDS011;20865;43.312;27.152;2024-01-25T11:42:01;15.13;;;5.80;;
34657;SDS011;20865;43.312;27.152;2024-01-25T11:44:29;12.03;;;4.10;;
34657;SDS011;20865;43.312;27.152;2024-01-25T11:46:57;19.20;;;4.42;;
34657;SDS011;20865;43.312;27.152;2024-01-25T11:49:25;18.77;;;3.98;;
34657;SDS011;20865;43.312;27.152;2024-01-25T11:51:52;20.00;;;4.83;;
34657;SDS011;20865;43.312;27.152;2024-01-25T11:54:20;21.17;;;3.98;;
34657;SDS011;20865;43.312;27.152;2024-01-25T11:56:47;12.23;;;3.70;;
34657;SDS011;20865;43.312;27.152;2024-01-25T11:59:15;13.48;;;3.42;;
34657;SDS011;20865;43.312;27.152;2024-01-25T12:01:43;15.55;;;3.95;;
34657;SDS011;20865;43.312;27.152;2024-01-25T12:04:11;16.17;;;4.53;;
34657;SDS011;20865;43.312;27.152;2024-01-25T12:06:39;12.50;;;3.52;;
34657;SDS011;20865;43.312;27.152;2024-01-25T12:09:09;16.67;;;3.40;;
34657;SDS011;20865;43.312;27.152;2024-01-25T12:11:38;22.00;;;4.83;;
34657;SDS011;20865;43.312;27.152;2024-01-25T12:14:12;17.17;;;4.35;;
34657;SDS011;20865;43.312;27.152;2024-01-25T12:16:36;14.50;;;4.62;;
34657;SDS011;20865;43.312;27.152;2024-01-25T12:19:04;21.62;;;5.25;;
34657;SDS011;20865;43.312;27.152;2024-01-25T12:21:35;18.90;;;5.53;;
34657;SDS011;20865;43.312;27.152;2024-01-25T12:24:03;12.73;;;4.37;;
34657;SDS011;20865;43.312;27.152;2024-01-25T12:26:35;14.50;;;3.75;;
34657;SDS011;20865;43.312;27.152;2024-01-25T12:29:03;14.25;;;3.65;;
34657;SDS011;20865;43.312;27.152;2024-01-25T12:31:31;11.00;;;3.42;;
34657;SDS011;20865;43.312;27.152;2024-01-25T12:33:59;9.55;;;3.95;;
34657;SDS011;20865;43.312;27.152;2024-01-25T12:36:27;12.58;;;3.90;;
34657;SDS011;20865;43.312;27.152;2024-01-25T12:38:55;12.37;;;4.10;;
34657;SDS011;20865;43.312;27.152;2024-01-25T12:41:22;12.82;;;4.47;;
34657;SDS011;20865;43.312;27.152;2024-01-25T12:43:50;12.82;;;4.95;;
34657;SDS011;20865;43.312;27.152;2024-01-25T12:46:17;13.40;;;4.28;;
34657;SDS011;20865;43.312;27.152;2024-01-25T12:48:45;19.17;;;4.33;;
34657;SDS011;20865;43.312;27.152;2024-01-25T12:51:13;9.78;;;3.55;;
34657;SDS011;20865;43.312;27.152;2024-01-25T12:53:41;11.12;;;3.45;;
34657;SDS011;20865;43.312;27.152;2024-01-25T12:56:08;9.55;;;3.85;;
34657;SDS011;20865;43.312;27.152;2024-01-25T12:58:36;14.93;;;4.42;;
34657;SDS011;20865;43.312;27.152;2024-01-25T13:01:04;17.50;;;4.47;;
34657;SDS011;20865;43.312;27.152;2024-01-25T13:03:32;19.50;;;4.17;;
34657;SDS011;20865;43.312;27.152;2024-01-25T13:06:00;18.05;;;4.40;;
34657;SDS011;20865;43.312;27.152;2024-01-25T13:08:29;16.80;;;4.40;;
34657;SDS011;20865;43.312;27.152;2024-01-25T13:10:56;15.38;;;4.75;;
34657;SDS011;20865;43.312;27.152;2024-01-25T13:13:24;17.05;;;5.08;;
34657;SDS011;20865;43.312;27.152;2024-01-25T13:15:51;11.53;;;4.00;;
34657;SDS011;20865;43.312;27.152;2024-01-25T13:18:19;16.17;;;4.15;;
34657;SDS011;20865;43.312;27.152;2024-01-25T13:20:47;12.18;;;3.52;;
34657;SDS011;20865;43.312;27.152;2024-01-25T13:23:14;12.00;;;3.77;;
34657;SDS011;20865;43.312;27.152;2024-01-25T13:25:42;11.40;;;3.20;;
34657;SDS011;20865;43.312;27.152;2024-01-25T13:28:09;14.45;;;3.45;;
34657;SDS011;20865;43.312;27.152;2024-01-25T13:30:37;11.50;;;3.80;;
34657;SDS011;20865;43.312;27.152;2024-01-25T13:33:04;13.08;;;3.87;;
34657;SDS011;20865;43.312;27.152;2024-01-25T13:35:32;18.85;;;4.65;;
34657;SDS011;20865;43.312;27.152;2024-01-25T13:37:59;17.23;;;5.05;;
34657;SDS011;20865;43.312;27.152;2024-01-25T13:40:27;10.72;;;4.42;;
34657;SDS011;20865;43.312;27.152;2024-01-25T13:42:55;18.87;;;4.45;;
34657;SDS011;20865;43.312;27.152;2024-01-25T13:45:22;12.55;;;3.85;;
34657;SDS011;20865;43.312;27.152;2024-01-25T13:47:50;16.50;;;4.20;;
34657;SDS011;20865;43.312;27.152;2024-01-25T13:50:17;15.70;;;5.40;;
34657;SDS011;20865;43.312;27.152;2024-01-25T13:52:45;29.00;;;8.33;;
34657;SDS011;20865;43.312;27.152;2024-01-25T13:55:12;21.60;;;6.08;;
34657;SDS011;20865;43.312;27.152;2024-01-25T13:57:40;16.82;;;4.30;;
34657;SDS011;20865;43.312;27.152;2024-01-25T14:00:08;12.70;;;4.33;;
34657;SDS011;20865;43.312;27.152;2024-01-25T14:02:36;18.67;;;5.20;;
34657;SDS011;20865;43.312;27.152;2024-01-25T14:05:05;20.70;;;6.12;;
34657;SDS011;20865;43.312;27.152;2024-01-25T14:07:33;12.47;;;3.58;;
34657;SDS011;20865;43.312;27.152;2024-01-25T14:10:00;17.07;;;4.58;;
34657;SDS011;20865;43.312;27.152;2024-01-25T14:12:28;16.50;;;3.70;;
34657;SDS011;20865;43.312;27.152;2024-01-25T14:14:55;20.90;;;6.40;;
34657;SDS011;20865;43.312;27.152;2024-01-25T14:17:23;18.95;;;5.78;;
34657;SDS011;20865;43.312;27.152;2024-01-25T14:19:53;29.20;;;6.55;;